sensor_id;sensor_type;location;lat;lon;timestamp;P1;durP1;ratioP1;P2;durP2;ratioP2
51616;SDS011;37697;52.588;13.394;2024-02-21T00:00:48;15.10;;;4.70;;
51616;SDS011;37697;52.588;13.394;2024-02-21T00:06:18;16.00;;;5.00;;
51616;SDS011;37697;52.588;13.394;2024-02-21T00:11:44;18.70;;;5.30;;
51616;SDS011;37697;52.588;13.394;2024-02-21T00:17:03;18.10;;;5.40;;
51616;SDS011;37697;52.588;13.394;2024-02-21T00:22:28;17.60;;;5.20;;
51616;SDS011;37697;52.588;13.394;2024-02-21T00:27:37;16.00;;;5.50;;
51616;SDS011;37697;52.588;13.394;2024-02-21T00:33:03;21.60;;;5.10;;
51616;SDS011;37697;52.588;13.394;2024-02-21T00:38:29;18.30;;;5.10;;
51616;SDS011;37697;52.588;13.394;2024-02-21T00:43:55;16.00;;;4.10;;
51616;SDS011;37697;52.588;13.394;2024-02-21T00:49:12;15.70;;;4.60;;
51616;SDS011;37697;52.588;13.394;2024-02-21T00:54:37;15.30;;;4.50;;
51616;SDS011;37697;52.588;13.394;2024-02-21T00:59:57;19.20;;;5.00;;
51616;SDS011;37697;52.588;13.394;2024-02-21T01:05:22;14.60;;;5.00;;
51616;SDS011;37697;52.588;13.394;2024-02-21T01:10:32;14.80;;;4.70;;
51616;SDS011;37697;52.588;13.394;2024-02-21T01:15:58;13.10;;;3.50;;
51616;SDS011;37697;52.588;13.394;2024-02-21T01:21:16;14.60;;;4.10;;
51616;SDS011;37697;52.588;13.394;2024-02-21T01:26:42;16.00;;;5.10;;
51616;SDS011;37697;52.588;13.394;2024-02-21T01:32:08;12.70;;;4.10;;
51616;SDS011;37697;52.588;13.394;2024-02-21T01:37:32;16.40;;;4.20;;
51616;SDS011;37697;52.588;13.394;2024-02-21T01:42:58;15.20;;;4.60;;
51616;SDS011;37697;52.588;13.394;2024-02-21T01:48:24;18.30;;;4.10;;
51616;SDS011;37697;52.588;13.394;2024-02-21T01:53:51;13.00;;;4.10;;
51616;SDS011;37697;52.588;13.394;2024-02-21T01:59:17;15.80;;;5.10;;
51616;SDS011;37697;52.588;13.394;2024-02-21T02:04:45;11.70;;;3.80;;
51616;SDS011;37697;52.588;13.394;2024-02-21T02:10:11;14.20;;;4.00;;
51616;SDS011;37697;52.588;13.394;2024-02-21T02:15:40;13.40;;;4.60;;
51616;SDS011;37697;52.588;13.394;2024-02-21T02:21:08;17.80;;;4.70;;
51616;SDS011;37697;52.588;13.394;2024-02-21T02:26:40;14.20;;;4.00;;
51616;SDS011;37697;52.588;13.394;2024-02-21T02:32:06;17.10;;;4.70;;
51616;SDS011;37697;52.588;13.394;2024-02-21T02:37:32;16.00;;;5.20;;
51616;SDS011;37697;52.588;13.394;2024-02-21T02:42:58;13.70;;;4.40;;
51616;SDS011;37697;52.588;13.394;2024-02-21T02:48:24;13.70;;;5.10;;
51616;SDS011;37697;52.588;13.394;2024-02-21T02:53:48;19.00;;;5.80;;
51616;SDS011;37697;52.588;13.394;2024-02-21T02:59:14;14.30;;;4.40;;
51616;SDS011;37697;52.588;13.394;2024-02-21T03:04:40;15.30;;;4.60;;
51616;SDS011;37697;52.588;13.394;2024-02-21T03:10:05;14.10;;;4.90;;
51616;SDS011;37697;52.588;13.394;2024-02-21T03:15:33;16.20;;;5.10;;
51616;SDS011;37697;52.588;13.394;2024-02-21T03:20:59;12.60;;;5.00;;
51616;SDS011;37697;52.588;13.394;2024-02-21T03:26:25;18.00;;;5.40;;
51616;SDS011;37697;52.588;13.394;2024-02-21T03:31:51;16.80;;;5.50;;
51616;SDS011;37697;52.588;13.394;2024-02-21T03:37:15;17.20;;;5.80;;
51616;SDS011;37697;52.588;13.394;2024-02-21T03:42:41;14.50;;;5.50;;
51616;SDS011;37697;52.588;13.394;2024-02-21T03:48:07;14.30;;;5.30;;
51616;SDS011;37697;52.588;13.394;2024-02-21T03:53:32;12.40;;;4.80;;
51616;SDS011;37697;52.588;13.394;2024-02-21T03:58:59;12.80;;;5.00;;
51616;SDS011;37697;52.588;13.394;2024-02-21T04:04:24;16.60;;;5.40;;
51616;SDS011;37697;52.588;13.394;2024-02-21T04:09:50;13.30;;;5.60;;
51616;SDS011;37697;52.588;13.394;2024-02-21T04:15:16;15.10;;;5.60;;
51616;SDS011;37697;52.588;13.394;2024-02-21T04:20:42;18.90;;;6.00;;
51616;SDS011;37697;52.588;13.394;2024-02-21T04:26:08;17.40;;;6.20;;
51616;SDS011;37697;52.588;13.394;2024-02-21T04:31:33;16.80;;;5.60;;
51616;SDS011;37697;52.588;13.394;2024-02-21T04:36:59;15.70;;;5.60;;
51616;SDS011;37697;52.588;13.394;2024-02-21T04:42:25;17.70;;;6.10;;
51616;SDS011;37697;52.588;13.394;2024-02-21T04:47:51;14.20;;;5.70;;
51616;SDS011;37697;52.588;13.394;2024-02-21T04:53:17;20.60;;;6.80;;
51616;SDS011;37697;52.588;13.394;2024-02-21T04:58:42;16.40;;;5.80;;
51616;SDS011;37697;52.588;13.394;2024-02-21T05:04:08;16.60;;;7.20;;
51616;SDS011;37697;52.588;13.394;2024-02-21T05:09:34;13.50;;;7.00;;
51616;SDS011;37697;52.588;13.394;2024-02-21T05:15:00;15.00;;;6.40;;
51616;SDS011;37697;52.588;13.394;2024-02-21T05:20:26;14.90;;;6.80;;
51616;SDS011;37697;52.588;13.394;2024-02-21T05:25:51;13.80;;;6.40;;
51616;SDS011;37697;52.588;13.394;2024-02-21T05:31:19;20.40;;;7.50;;
51616;SDS011;37697;52.588;13.394;2024-02-21T05:36:45;16.40;;;7.70;;
51616;SDS011;37697;52.588;13.394;2024-02-21T05:42:10;16.40;;;6.70;;
51616;SDS011;37697;52.588;13.394;2024-02-21T05:47:36;18.90;;;7.30;;
51616;SDS011;37697;52.588;13.394;2024-02-21T05:53:02;20.20;;;7.10;;
51616;SDS011;37697;52.588;13.394;2024-02-21T05:58:28;17.70;;;8.40;;
51616;SDS011;37697;52.588;13.394;2024-02-21T06:03:54;18.40;;;8.00;;
51616;SDS011;37697;52.588;13.394;2024-02-21T06:09:20;17.60;;;8.20;;
51616;SDS011;37697;52.588;13.394;2024-02-21T06:14:45;20.80;;;7.70;;
51616;SDS011;37697;52.588;13.394;2024-02-21T06:20:11;21.00;;;7.90;;
51616;SDS011;37697;52.588;13.394;2024-02-21T06:25:39;17.80;;;7.70;;
51616;SDS011;37697;52.588;13.394;2024-02-21T06:31:05;13.70;;;6.90;;
51616;SDS011;37697;52.588;13.394;2024-02-21T06:36:31;16.90;;;8.10;;
51616;SDS011;37697;52.588;13.394;2024-02-21T06:41:57;19.70;;;7.60;;
51616;SDS011;37697;52.588;13.394;2024-02-21T06:47:15;21.80;;;8.20;;
51616;SDS011;37697;52.588;13.394;2024-02-21T06:52:34;16.40;;;7.00;;
51616;SDS011;37697;52.588;13.394;2024-02-21T06:58:00;17.40;;;8.70;;
51616;SDS011;37697;52.588;13.394;2024-02-21T07:03:26;18.50;;;8.50;;
51616;SDS011;37697;52.588;13.394;2024-02-21T07:08:50;17.90;;;8.50;;
51616;SDS011;37697;52.588;13.394;2024-02-21T07:14:17;14.80;;;8.10;;
51616;SDS011;37697;52.588;13.394;2024-02-21T07:19:43;14.70;;;7.60;;
51616;SDS011;37697;52.588;13.394;2024-02-21T07:25:09;20.30;;;8.30;;
51616;SDS011;37697;52.588;13.394;2024-02-21T07:30:35;18.20;;;8.40;;
51616;SDS011;37697;52.588;13.394;2024-02-21T07:36:01;17.40;;;8.60;;
51616;SDS011;37697;52.588;13.394;2024-02-21T07:41:29;14.50;;;7.00;;
51616;SDS011;37697;52.588;13.394;2024-02-21T07:46:55;14.70;;;7.90;;
51616;SDS011;37697;52.588;13.394;2024-02-21T07:52:21;17.00;;;7.60;;
51616;SDS011;37697;52.588;13.394;2024-02-21T07:57:47;14.80;;;7.20;;
51616;SDS011;37697;52.588;13.394;2024-02-21T08:03:11;15.40;;;6.90;;
51616;SDS011;37697;52.588;13.394;2024-02-21T08:08:37;16.20;;;7.20;;
51616;SDS011;37697;52.588;13.394;2024-02-21T08:14:03;15.40;;;7.80;;
51616;SDS011;37697;52.588;13.394;2024-02-21T08:19:24;17.30;;;7.60;;
51616;SDS011;37697;52.588;13.394;2024-02-21T08:24:49;15.20;;;6.80;;
51616;SDS011;37697;52.588;13.394;2024-02-21T08:30:16;14.70;;;6.50;;
51616;SDS011;37697;52.588;13.394;2024-02-21T08:35:42;14.20;;;7.80;;
51616;SDS011;37697;52.588;13.394;2024-02-21T08:41:08;19.40;;;8.60;;
51616;SDS011;37697;52.588;13.394;2024-02-21T08:46:53;18.00;;;8.80;;
51616;SDS011;37697;52.588;13.394;2024-02-21T08:52:20;18.00;;;8.30;;
51616;SDS011;37697;52.588;13.394;2024-02-21T08:57:45;16.80;;;7.90;;
51616;SDS011;37697;52.588;13.394;2024-02-21T09:03:11;16.10;;;8.70;;
51616;SDS011;37697;52.588;13.394;2024-02-21T09:08:37;16.30;;;8.30;;
51616;SDS011;37697;52.588;13.394;2024-02-21T09:14:03;17.30;;;8.50;;
51616;SDS011;37697;52.588;13.394;2024-02-21T09:19:29;20.20;;;8.60;;
51616;SDS011;37697;52.588;13.394;2024-02-21T09:24:55;18.40;;;8.20;;
51616;SDS011;37697;52.588;13.394;2024-02-21T09:30:21;12.90;;;7.40;;
51616;SDS011;37697;52.588;13.394;2024-02-21T09:35:46;14.80;;;8.60;;
51616;SDS011;37697;52.588;13.394;2024-02-21T09:41:14;15.80;;;9.30;;
51616;SDS011;37697;52.588;13.394;2024-02-21T09:46:53;15.30;;;8.90;;
51616;SDS011;37697;52.588;13.394;2024-02-21T09:52:25;16.70;;;9.20;;
51616;SDS011;37697;52.588;13.394;2024-02-21T09:57:52;15.10;;;8.90;;
51616;SDS011;37697;52.588;13.394;2024-02-21T10:03:21;18.60;;;9.00;;
51616;SDS011;37697;52.588;13.394;2024-02-21T10:08:52;14.90;;;9.10;;
51616;SDS011;37697;52.588;13.394;2024-02-21T10:14:08;15.50;;;9.50;;
51616;SDS011;37697;52.588;13.394;2024-02-21T10:19:26;15.40;;;8.70;;
51616;SDS011;37697;52.588;13.394;2024-02-21T10:24:45;16.60;;;8.90;;
51616;SDS011;37697;52.588;13.394;2024-02-21T10:30:14;16.00;;;8.80;;
51616;SDS011;37697;52.588;13.394;2024-02-21T10:35:40;17.00;;;7.10;;
51616;SDS011;37697;52.588;13.394;2024-02-21T10:41:04;11.20;;;7.30;;
51616;SDS011;37697;52.588;13.394;2024-02-21T10:46:30;13.10;;;7.20;;
51616;SDS011;37697;52.588;13.394;2024-02-21T10:52:00;13.00;;;7.80;;
51616;SDS011;37697;52.588;13.394;2024-02-21T10:57:37;14.90;;;7.50;;
51616;SDS011;37697;52.588;13.394;2024-02-21T11:03:04;11.40;;;6.30;;
51616;SDS011;37697;52.588;13.394;2024-02-21T11:08:30;13.70;;;6.90;;
51616;SDS011;37697;52.588;13.394;2024-02-21T11:14:04;11.80;;;7.10;;
51616;SDS011;37697;52.588;13.394;2024-02-21T11:19:31;13.50;;;6.70;;
51616;SDS011;37697;52.588;13.394;2024-02-21T11:25:05;12.10;;;6.90;;
51616;SDS011;37697;52.588;13.394;2024-02-21T11:30:38;13.40;;;6.90;;
51616;SDS011;37697;52.588;13.394;2024-02-21T11:36:05;14.60;;;6.50;;
51616;SDS011;37697;52.588;13.394;2024-02-21T11:41:21;9.70;;;5.90;;
51616;SDS011;37697;52.588;13.394;2024-02-21T11:46:31;11.10;;;6.60;;
51616;SDS011;37697;52.588;13.394;2024-02-21T11:51:39;11.10;;;6.30;;
51616;SDS011;37697;52.588;13.394;2024-02-21T11:56:56;7.80;;;5.00;;
51616;SDS011;37697;52.588;13.394;2024-02-21T12:02:22;8.80;;;4.60;;
51616;SDS011;37697;52.588;13.394;2024-02-21T12:07:32;8.10;;;4.30;;
51616;SDS011;37697;52.588;13.394;2024-02-21T12:12:50;9.50;;;5.20;;
51616;SDS011;37697;52.588;13.394;2024-02-21T12:23:19;8.70;;;4.40;;
51616;SDS011;37697;52.588;13.394;2024-02-21T12:28:25;7.30;;;4.40;;
51616;SDS011;37697;52.588;13.394;2024-02-21T12:33:40;8.00;;;4.10;;
51616;SDS011;37697;52.588;13.394;2024-02-21T12:38:46;6.50;;;3.80;;
51616;SDS011;37697;52.588;13.394;2024-02-21T12:44:06;8.40;;;4.20;;
51616;SDS011;37697;52.588;13.394;2024-02-21T12:49:15;10.50;;;5.50;;
51616;SDS011;37697;52.588;13.394;2024-02-21T12:54:47;7.70;;;3.70;;
51616;SDS011;37697;52.588;13.394;2024-02-21T13:00:05;6.20;;;3.30;;
51616;SDS011;37697;52.588;13.394;2024-02-21T13:05:32;6.80;;;2.90;;
51616;SDS011;37697;52.588;13.394;2024-02-21T13:10:57;8.30;;;3.40;;
51616;SDS011;37697;52.588;13.394;2024-02-21T13:16:16;5.90;;;2.70;;
51616;SDS011;37697;52.588;13.394;2024-02-21T13:21:41;5.60;;;2.70;;
51616;SDS011;37697;52.588;13.394;2024-02-21T13:27:07;6.40;;;2.70;;
51616;SDS011;37697;52.588;13.394;2024-02-21T13:32:36;10.20;;;3.40;;
51616;SDS011;37697;52.588;13.394;2024-02-21T13:38:02;11.50;;;3.80;;
51616;SDS011;37697;52.588;13.394;2024-02-21T13:43:28;7.00;;;3.50;;
51616;SDS011;37697;52.588;13.394;2024-02-21T13:48:56;6.60;;;3.40;;
51616;SDS011;37697;52.588;13.394;2024-02-21T13:54:28;6.00;;;2.80;;
51616;SDS011;37697;52.588;13.394;2024-02-21T13:59:54;9.40;;;3.70;;
51616;SDS011;37697;52.588;13.394;2024-02-21T14:05:20;7.10;;;3.50;;
51616;SDS011;37697;52.588;13.394;2024-02-21T14:10:46;10.40;;;4.00;;
51616;SDS011;37697;52.588;13.394;2024-02-21T14:16:12;9.70;;;3.70;;
51616;SDS011;37697;52.588;13.394;2024-02-21T14:21:46;9.50;;;3.10;;
51616;SDS011;37697;52.588;13.394;2024-02-21T14:27:12;7.60;;;3.80;;
51616;SDS011;37697;52.588;13.394;2024-02-21T14:32:40;7.20;;;2.60;;
51616;SDS011;37697;52.588;13.394;2024-02-21T14:38:08;7.80;;;2.90;;
51616;SDS011;37697;52.588;13.394;2024-02-21T14:43:34;5.80;;;3.10;;
51616;SDS011;37697;52.588;13.394;2024-02-21T14:49:02;8.80;;;3.50;;
51616;SDS011;37697;52.588;13.394;2024-02-21T14:54:28;6.80;;;3.50;;
51616;SDS011;37697;52.588;13.394;2024-02-21T14:59:54;5.70;;;2.80;;
51616;SDS011;37697;52.588;13.394;2024-02-21T15:05:22;6.20;;;2.60;;
51616;SDS011;37697;52.588;13.394;2024-02-21T15:10:32;6.10;;;2.60;;
51616;SDS011;37697;52.588;13.394;2024-02-21T15:15:58;4.90;;;2.80;;
51616;SDS011;37697;52.588;13.394;2024-02-21T15:21:24;6.10;;;2.60;;
51616;SDS011;37697;52.588;13.394;2024-02-21T15:26:50;6.50;;;2.60;;
51616;SDS011;37697;52.588;13.394;2024-02-21T15:32:03;7.50;;;2.60;;
51616;SDS011;37697;52.588;13.394;2024-02-21T15:37:13;5.30;;;2.60;;
51616;SDS011;37697;52.588;13.394;2024-02-21T15:42:24;7.80;;;2.80;;
51616;SDS011;37697;52.588;13.394;2024-02-21T15:47:49;5.50;;;2.40;;
51616;SDS011;37697;52.588;13.394;2024-02-21T15:53:15;5.00;;;2.00;;
51616;SDS011;37697;52.588;13.394;2024-02-21T15:58:42;5.10;;;2.30;;
51616;SDS011;37697;52.588;13.394;2024-02-21T16:04:08;5.40;;;2.30;;
51616;SDS011;37697;52.588;13.394;2024-02-21T16:09:34;4.80;;;1.80;;
51616;SDS011;37697;52.588;13.394;2024-02-21T16:14:51;4.00;;;1.90;;
51616;SDS011;37697;52.588;13.394;2024-02-21T16:20:17;6.90;;;2.30;;
51616;SDS011;37697;52.588;13.394;2024-02-21T16:25:26;8.40;;;2.90;;
51616;SDS011;37697;52.588;13.394;2024-02-21T16:30:52;5.80;;;2.70;;
51616;SDS011;37697;52.588;13.394;2024-02-21T16:36:00;6.20;;;3.10;;
51616;SDS011;37697;52.588;13.394;2024-02-21T16:41:26;10.80;;;6.10;;
51616;SDS011;37697;52.588;13.394;2024-02-21T16:46:52;8.50;;;4.10;;
51616;SDS011;37697;52.588;13.394;2024-02-21T16:52:09;10.00;;;4.20;;
51616;SDS011;37697;52.588;13.394;2024-02-21T16:57:35;10.60;;;4.20;;
51616;SDS011;37697;52.588;13.394;2024-02-21T17:03:01;10.00;;;3.90;;
51616;SDS011;37697;52.588;13.394;2024-02-21T17:08:27;8.80;;;4.10;;
51616;SDS011;37697;52.588;13.394;2024-02-21T17:13:54;10.50;;;3.70;;
51616;SDS011;37697;52.588;13.394;2024-02-21T17:19:18;6.70;;;3.40;;
51616;SDS011;37697;52.588;13.394;2024-02-21T17:24:44;9.20;;;3.50;;
51616;SDS011;37697;52.588;13.394;2024-02-21T17:30:10;7.40;;;3.10;;
51616;SDS011;37697;52.588;13.394;2024-02-21T17:35:35;9.10;;;3.30;;
51616;SDS011;37697;52.588;13.394;2024-02-21T17:41:01;7.40;;;3.10;;
51616;SDS011;37697;52.588;13.394;2024-02-21T17:46:20;7.50;;;3.50;;
51616;SDS011;37697;52.588;13.394;2024-02-21T17:51:46;7.20;;;3.20;;
51616;SDS011;37697;52.588;13.394;2024-02-21T17:57:12;8.30;;;3.50;;
51616;SDS011;37697;52.588;13.394;2024-02-21T18:02:31;11.00;;;4.50;;
51616;SDS011;37697;52.588;13.394;2024-02-21T18:07:57;12.10;;;4.50;;
51616;SDS011;37697;52.588;13.394;2024-02-21T18:13:22;10.50;;;4.00;;
51616;SDS011;37697;52.588;13.394;2024-02-21T18:18:48;9.60;;;3.40;;
51616;SDS011;37697;52.588;13.394;2024-02-21T18:24:13;8.90;;;4.40;;
51616;SDS011;37697;52.588;13.394;2024-02-21T18:29:38;8.40;;;4.00;;
51616;SDS011;37697;52.588;13.394;2024-02-21T18:34:57;8.80;;;3.90;;
51616;SDS011;37697;52.588;13.394;2024-02-21T18:40:23;16.20;;;9.30;;
51616;SDS011;37697;52.588;13.394;2024-02-21T18:45:41;10.80;;;5.30;;
51616;SDS011;37697;52.588;13.394;2024-02-21T18:51:00;12.70;;;6.20;;
51616;SDS011;37697;52.588;13.394;2024-02-21T18:56:19;9.10;;;5.00;;
51616;SDS011;37697;52.588;13.394;2024-02-21T19:01:40;10.60;;;4.40;;
51616;SDS011;37697;52.588;13.394;2024-02-21T19:06:50;9.10;;;4.60;;
51616;SDS011;37697;52.588;13.394;2024-02-21T19:12:15;11.70;;;7.10;;
51616;SDS011;37697;52.588;13.394;2024-02-21T19:17:22;12.80;;;6.50;;
51616;SDS011;37697;52.588;13.394;2024-02-21T19:22:48;10.50;;;4.30;;
51616;SDS011;37697;52.588;13.394;2024-02-21T19:28:12;7.60;;;3.80;;
51616;SDS011;37697;52.588;13.394;2024-02-21T19:33:38;10.40;;;4.90;;
51616;SDS011;37697;52.588;13.394;2024-02-21T19:39:05;8.90;;;4.40;;
51616;SDS011;37697;52.588;13.394;2024-02-21T19:44:32;7.10;;;4.00;;
51616;SDS011;37697;52.588;13.394;2024-02-21T19:49:57;8.50;;;4.00;;
51616;SDS011;37697;52.588;13.394;2024-02-21T19:55:23;7.30;;;3.80;;
51616;SDS011;37697;52.588;13.394;2024-02-21T20:00:49;6.10;;;3.80;;
51616;SDS011;37697;52.588;13.394;2024-02-21T20:06:10;8.30;;;4.40;;
51616;SDS011;37697;52.588;13.394;2024-02-21T20:11:37;10.50;;;5.10;;
51616;SDS011;37697;52.588;13.394;2024-02-21T20:16:56;7.60;;;4.30;;
51616;SDS011;37697;52.588;13.394;2024-02-21T20:22:15;9.60;;;5.00;;
51616;SDS011;37697;52.588;13.394;2024-02-21T20:27:24;7.80;;;4.30;;
51616;SDS011;37697;52.588;13.394;2024-02-21T20:32:43;9.40;;;4.20;;
51616;SDS011;37697;52.588;13.394;2024-02-21T20:38:09;9.90;;;4.30;;
51616;SDS011;37697;52.588;13.394;2024-02-21T20:43:34;10.00;;;4.50;;
51616;SDS011;37697;52.588;13.394;2024-02-21T20:48:52;7.90;;;4.20;;
51616;SDS011;37697;52.588;13.394;2024-02-21T20:54:18;9.20;;;4.00;;
51616;SDS011;37697;52.588;13.394;2024-02-21T20:59:44;8.70;;;4.20;;
51616;SDS011;37697;52.588;13.394;2024-02-21T21:04:58;6.30;;;3.60;;
51616;SDS011;37697;52.588;13.394;2024-02-21T21:10:24;8.70;;;3.60;;
51616;SDS011;37697;52.588;13.394;2024-02-21T21:15:51;9.60;;;3.10;;
51616;SDS011;37697;52.588;13.394;2024-02-21T21:21:17;8.90;;;3.60;;
51616;SDS011;37697;52.588;13.394;2024-02-21T21:26:44;7.10;;;3.40;;
51616;SDS011;37697;52.588;13.394;2024-02-21T21:32:10;7.50;;;3.30;;
51616;SDS011;37697;52.588;13.394;2024-02-21T21:37:35;9.70;;;3.20;;
51616;SDS011;37697;52.588;13.394;2024-02-21T21:43:01;8.40;;;3.20;;
51616;SDS011;37697;52.588;13.394;2024-02-21T21:48:27;7.50;;;3.10;;
51616;SDS011;37697;52.588;13.394;2024-02-21T21:53:53;6.30;;;3.10;;
51616;SDS011;37697;52.588;13.394;2024-02-21T21:59:19;6.30;;;2.80;;
51616;SDS011;37697;52.588;13.394;2024-02-21T22:04:33;7.20;;;3.20;;
51616;SDS011;37697;52.588;13.394;2024-02-21T22:09:59;10.50;;;3.30;;
51616;SDS011;37697;52.588;13.394;2024-02-21T22:15:25;7.70;;;2.90;;
51616;SDS011;37697;52.588;13.394;2024-02-21T22:20:50;7.10;;;2.40;;
51616;SDS011;37697;52.588;13.394;2024-02-21T22:26:16;6.70;;;2.60;;
51616;SDS011;37697;52.588;13.394;2024-02-21T22:31:42;6.40;;;2.60;;
51616;SDS011;37697;52.588;13.394;2024-02-21T22:37:07;12.00;;;3.00;;
51616;SDS011;37697;52.588;13.394;2024-02-21T22:42:33;8.10;;;2.70;;
51616;SDS011;37697;52.588;13.394;2024-02-21T22:47:59;6.90;;;3.20;;
51616;SDS011;37697;52.588;13.394;2024-02-21T22:53:25;5.80;;;2.20;;
51616;SDS011;37697;52.588;13.394;2024-02-21T22:58:43;5.70;;;2.30;;
51616;SDS011;37697;52.588;13.394;2024-02-21T23:04:01;6.50;;;2.60;;
51616;SDS011;37697;52.588;13.394;2024-02-21T23:09:27;7.50;;;2.10;;
51616;SDS011;37697;52.588;13.394;2024-02-21T23:14:52;6.50;;;2.40;;
51616;SDS011;37697;52.588;13.394;2024-02-21T23:20:18;6.10;;;2.20;;
51616;SDS011;37697;52.588;13.394;2024-02-21T23:25:44;5.80;;;2.40;;
51616;SDS011;37697;52.588;13.394;2024-02-21T23:31:11;6.20;;;2.60;;
51616;SDS011;37697;52.588;13.394;2024-02-21T23:36:19;7.70;;;3.00;;
51616;SDS011;37697;52.588;13.394;2024-02-21T23:41:45;7.80;;;2.50;;
51616;SDS011;37697;52.588;13.394;2024-02-21T23:47:11;6.40;;;2.40;;
51616;SDS011;37697;52.588;13.394;2024-02-21T23:52:37;6.80;;;2.30;;
51616;SDS011;37697;52.588;13.394;2024-02-21T23:58:02;6.10;;;2.10;;
